Dallas/Fort Worth (DFW/KDFW)

Information

Location
Dallas/Fort Worth, TX
Local Time
18:27 / 6:27 pm
GMT Time
00:27 / 12:27 am
Gates
Unassigned
No FAA reported delays
METAR KDFW 222353Z 33016KT 10SM CLR 16/02 A2981 RMK AO2 PK WND 33033/2258 SLP092 T01610022 10189 20144 51046
TAF KDFW 222334Z 2300/2406 33021G31KT P6SM SKC FM230100 32014KT P6SM SKC FM230800 33005KT P6SM FEW250 FM231600 20009KT P6SM SCT250
  • No charts available